createdAt,value
2018-01-08T00:02:13.473Z,5.30
2018-01-08T00:04:41.055Z,5.30
2018-01-08T00:07:07.714Z,5.30
2018-01-08T00:09:34.386Z,5.20
2018-01-08T00:12:01.035Z,5.20
2018-01-08T00:14:28.456Z,5.20
2018-01-08T00:16:55.140Z,5.20
2018-01-08T00:19:21.824Z,5.20
2018-01-08T00:21:48.510Z,5.20
2018-01-08T00:24:15.162Z,5.30
2018-01-08T00:26:42.596Z,5.30
2018-01-08T00:29:09.239Z,5.30
2018-01-08T00:31:35.901Z,5.30
2018-01-08T00:34:02.596Z,5.30
2018-01-08T00:36:29.219Z,5.30
2018-01-08T00:38:55.913Z,5.30
2018-01-08T00:41:22.594Z,5.30
2018-01-08T00:43:49.258Z,5.30
2018-01-08T00:46:15.922Z,5.40
2018-01-08T00:48:42.607Z,5.40
2018-01-08T00:51:10.796Z,5.40
2018-01-08T00:53:38.230Z,5.40
2018-01-08T00:56:04.898Z,5.30
2018-01-08T00:58:32.287Z,5.30
2018-01-08T01:00:59.453Z,5.30
2018-01-08T01:03:26.106Z,5.30
2018-01-08T01:05:52.782Z,5.30
2018-01-08T01:08:20.201Z,5.10
2018-01-08T01:10:46.894Z,5.10
2018-01-08T01:13:14.306Z,5.00
2018-01-08T01:15:40.952Z,4.90
2018-01-08T01:18:07.738Z,4.90
2018-01-08T01:20:35.158Z,5.00
2018-01-08T01:23:01.814Z,5.00
2018-01-08T01:25:28.495Z,5.00
2018-01-08T01:27:55.892Z,5.10
2018-01-08T01:30:22.582Z,5.00
2018-01-08T01:32:49.266Z,5.10
2018-01-08T01:35:15.903Z,5.10
2018-01-08T01:37:42.557Z,5.20
2018-01-08T01:40:09.230Z,5.20
2018-01-08T01:42:35.887Z,5.20
2018-01-08T01:45:02.567Z,5.20
2018-01-08T01:47:29.262Z,5.20
2018-01-08T01:49:55.951Z,5.20
2018-01-08T01:52:22.642Z,5.20
2018-01-08T01:54:49.424Z,5.10
2018-01-08T01:57:16.852Z,5.10
2018-01-08T01:59:43.501Z,5.10
2018-01-08T02:02:10.214Z,5.00
2018-01-08T02:04:36.874Z,5.00
2018-01-08T02:07:03.550Z,5.00
2018-01-08T02:09:31.283Z,5.10
2018-01-08T02:11:57.960Z,5.10
2018-01-08T02:14:24.694Z,5.10
2018-01-08T02:16:52.104Z,5.10
2018-01-08T02:19:18.782Z,5.10
2018-01-08T02:21:45.447Z,5.00
2018-01-08T02:24:12.157Z,4.90
2018-01-08T02:26:39.557Z,4.90
2018-01-08T02:29:06.966Z,4.80
2018-01-08T02:31:33.737Z,4.80
2018-01-08T02:34:00.414Z,4.70
2018-01-08T02:36:27.065Z,4.80
2018-01-08T02:38:53.773Z,4.80
2018-01-08T02:41:20.411Z,4.80
2018-01-08T02:43:47.070Z,4.80
2018-01-08T02:46:14.520Z,4.90
2018-01-08T02:48:41.946Z,4.70
2018-01-08T02:51:08.962Z,4.70
2018-01-08T02:53:35.648Z,4.70
2018-01-08T02:56:02.273Z,4.70
2018-01-08T02:58:28.993Z,4.70
2018-01-08T03:00:55.646Z,4.70
2018-01-08T03:03:22.410Z,4.70
2018-01-08T03:05:49.090Z,4.80
2018-01-08T03:08:16.482Z,4.80
2018-01-08T03:10:43.173Z,4.80
2018-01-08T03:13:09.902Z,4.80
2018-01-08T03:15:36.582Z,4.80
2018-01-08T03:18:03.293Z,4.70
2018-01-08T03:20:30.037Z,4.70
2018-01-08T03:22:56.722Z,4.80
2018-01-08T03:25:24.452Z,4.80
2018-01-08T03:27:51.123Z,4.80
2018-01-08T03:30:18.547Z,4.80
2018-01-08T03:32:45.202Z,4.70
2018-01-08T03:35:11.879Z,4.70
2018-01-08T03:37:38.637Z,4.60
2018-01-08T03:40:05.286Z,4.60
2018-01-08T03:42:31.941Z,4.50
2018-01-08T03:44:58.622Z,4.60
2018-01-08T03:47:25.267Z,4.60
2018-01-08T03:49:52.834Z,4.60
2018-01-08T03:52:19.544Z,4.50
2018-01-08T03:54:46.283Z,4.60
2018-01-08T03:57:12.957Z,4.50
2018-01-08T03:59:39.630Z,4.50
2018-01-08T04:02:07.043Z,4.40
2018-01-08T04:04:33.702Z,4.40
2018-01-08T04:07:00.397Z,4.30
2018-01-08T04:09:27.073Z,4.20
2018-01-08T04:11:53.723Z,4.40
2018-01-08T04:14:20.426Z,4.40
2018-01-08T04:16:47.083Z,4.50
2018-01-08T04:19:13.768Z,4.40
2018-01-08T04:21:40.534Z,4.30
2018-01-08T04:24:07.937Z,4.30
2018-01-08T04:26:34.607Z,4.30
2018-01-08T04:29:02.221Z,4.30
2018-01-08T04:31:28.894Z,4.30
2018-01-08T04:33:55.654Z,4.30
2018-01-08T04:36:22.297Z,4.20
2018-01-08T04:38:48.970Z,4.20
2018-01-08T04:41:15.680Z,4.20
2018-01-08T04:43:42.322Z,4.20
2018-01-08T04:46:09.007Z,4.10
2018-01-08T04:48:36.454Z,4.00
2018-01-08T04:51:03.931Z,4.00
2018-01-08T04:53:30.672Z,3.90
2018-01-08T04:55:58.101Z,3.90
2018-01-08T04:58:24.805Z,3.90
2018-01-08T05:00:51.545Z,3.90
2018-01-08T05:03:18.899Z,3.90
2018-01-08T05:05:46.123Z,3.90
2018-01-08T05:08:13.558Z,3.90
2018-01-08T05:10:40.207Z,3.80
2018-01-08T05:13:06.870Z,3.90
2018-01-08T05:15:34.602Z,3.90
2018-01-08T05:18:01.288Z,3.90
2018-01-08T05:20:29.454Z,3.90
2018-01-08T05:22:56.149Z,3.90
2018-01-08T05:25:22.792Z,3.90
2018-01-08T05:27:49.457Z,3.90
2018-01-08T05:30:16.120Z,3.90
2018-01-08T05:32:42.769Z,3.90
2018-01-08T05:35:10.179Z,3.90
2018-01-08T05:37:36.845Z,3.90
2018-01-08T05:40:03.487Z,3.90
2018-01-08T05:42:30.160Z,3.90
2018-01-08T05:44:57.990Z,3.90
2018-01-08T05:47:24.694Z,3.90
2018-01-08T05:49:51.624Z,3.90
2018-01-08T05:52:19.045Z,3.90
2018-01-08T05:54:45.716Z,3.90
2018-01-08T05:57:13.138Z,3.90
2018-01-08T05:59:39.795Z,3.90
2018-01-08T06:02:06.444Z,3.90
2018-01-08T06:04:33.124Z,4.00
2018-01-08T06:06:59.802Z,3.90
2018-01-08T06:09:26.472Z,3.90
2018-01-08T06:11:53.135Z,3.90
2018-01-08T06:14:20.559Z,3.90
2018-01-08T06:16:47.246Z,4.00
2018-01-08T06:19:14.665Z,4.00
2018-01-08T06:21:41.346Z,4.00
2018-01-08T06:24:08.747Z,4.00
2018-01-08T06:26:35.450Z,3.90
2018-01-08T06:29:02.853Z,3.90
2018-01-08T06:31:30.095Z,3.90
2018-01-08T06:33:56.795Z,3.90
2018-01-08T06:36:23.441Z,3.80
2018-01-08T06:38:50.828Z,3.80
2018-01-08T06:41:17.498Z,3.80
2018-01-08T06:43:44.130Z,3.80
2018-01-08T06:46:10.798Z,3.90
2018-01-08T06:48:37.458Z,3.90
2018-01-08T06:51:04.165Z,3.90
2018-01-08T06:53:30.837Z,3.90
2018-01-08T06:55:57.539Z,3.80
2018-01-08T06:58:24.225Z,3.80
2018-01-08T07:00:50.876Z,3.80
2018-01-08T07:03:17.556Z,3.80
2018-01-08T07:05:44.224Z,3.90
2018-01-08T07:08:10.985Z,3.90
2018-01-08T07:10:37.677Z,3.90
2018-01-08T07:13:04.329Z,3.90
2018-01-08T07:15:30.966Z,3.90
2018-01-08T07:17:57.787Z,3.80
2018-01-08T07:20:26.208Z,3.80
2018-01-08T07:22:52.956Z,3.80
2018-01-08T07:25:19.716Z,3.80
2018-01-08T07:27:46.492Z,3.80
2018-01-08T07:30:13.144Z,3.90
2018-01-08T07:32:39.824Z,4.00
2018-01-08T07:35:06.475Z,4.00
2018-01-08T07:37:33.410Z,4.10
2018-01-08T07:40:00.912Z,4.20
2018-01-08T07:42:27.574Z,4.40
2018-01-08T07:44:54.263Z,4.50
2018-01-08T07:47:20.907Z,4.60
2018-01-08T07:49:47.546Z,4.80
2018-01-08T07:52:14.218Z,5.10
2018-01-08T07:54:40.969Z,5.30
2018-01-08T07:57:07.642Z,5.50
2018-01-08T07:59:34.564Z,6.00
2018-01-08T08:02:01.251Z,6.30
2018-01-08T08:04:28.654Z,7.00
2018-01-08T08:06:55.334Z,6.90
2018-01-08T08:09:21.981Z,7.10
2018-01-08T08:11:48.732Z,7.70
2018-01-08T08:14:16.158Z,9.20
2018-01-08T08:16:42.796Z,9.20
2018-01-08T08:19:09.458Z,9.30
2018-01-08T08:21:37.713Z,10.30
2018-01-08T08:24:04.374Z,10.30
2018-01-08T08:26:31.036Z,10.60
2018-01-08T08:28:58.435Z,11.30
2018-01-08T08:31:25.111Z,11.90
2018-01-08T08:33:51.768Z,12.40
2018-01-08T08:36:18.421Z,12.90
2018-01-08T08:38:45.920Z,12.50
2018-01-08T08:41:12.636Z,12.40
2018-01-08T08:43:40.023Z,12.00
2018-01-08T08:46:06.661Z,12.00
2018-01-08T08:48:33.333Z,11.80
2018-01-08T08:50:59.983Z,11.90
2018-01-08T08:53:26.736Z,12.00
2018-01-08T08:55:53.737Z,11.50
2018-01-08T08:58:20.410Z,11.60
2018-01-08T09:00:47.064Z,11.50
2018-01-08T09:03:13.766Z,11.80
2018-01-08T09:05:40.424Z,13.00
2018-01-08T09:08:07.098Z,14.40
2018-01-08T09:10:33.780Z,14.60
2018-01-08T09:13:01.193Z,15.20
2018-01-08T09:15:29.492Z,15.10
2018-01-08T09:17:57.124Z,14.40
2018-01-08T09:20:23.761Z,13.90
2018-01-08T09:22:50.435Z,13.80
2018-01-08T09:25:17.125Z,13.60
2018-01-08T09:27:44.569Z,14.00
2018-01-08T09:30:12.011Z,14.00
2018-01-08T09:32:38.690Z,14.00
2018-01-08T09:35:06.642Z,13.70
2018-01-08T09:37:34.103Z,14.20
2018-01-08T09:40:01.505Z,14.90
2018-01-08T09:42:28.157Z,14.80
2018-01-08T09:44:54.810Z,15.50
2018-01-08T09:47:21.511Z,15.80
2018-01-08T09:49:48.922Z,15.70
2018-01-08T09:52:15.586Z,15.70
2018-01-08T09:54:42.261Z,16.60
2018-01-08T09:57:09.661Z,16.60
2018-01-08T09:59:36.345Z,16.60
2018-01-08T10:02:06.672Z,15.70
2018-01-08T10:04:52.594Z,15.10
2018-01-08T10:07:37.527Z,15.00
2018-01-08T10:10:23.183Z,13.70
2018-01-08T10:13:08.122Z,13.70
2018-01-08T10:15:53.062Z,14.00
2018-01-08T10:18:25.955Z,14.20
2018-01-08T10:20:53.397Z,13.90
2018-01-08T10:23:20.049Z,13.90
2018-01-08T10:25:46.774Z,13.50
2018-01-08T10:28:13.486Z,13.30
2018-01-08T10:30:40.179Z,13.20
2018-01-08T10:33:07.022Z,13.10
2018-01-08T10:35:33.759Z,13.10
2018-01-08T10:38:01.169Z,13.10
2018-01-08T10:40:28.684Z,13.50
2018-01-08T10:43:01.304Z,14.10
2018-01-08T10:45:34.219Z,14.00
2018-01-08T10:48:06.761Z,13.90
2018-01-08T10:50:40.026Z,13.10
2018-01-08T10:53:06.793Z,13.10
2018-01-08T10:55:34.267Z,12.90
2018-01-08T10:58:01.695Z,12.70
2018-01-08T11:00:28.425Z,12.70
2018-01-08T11:03:01.323Z,12.70
2018-01-08T11:05:28.043Z,12.60
2018-01-08T11:07:54.807Z,12.60
2018-01-08T11:10:21.500Z,12.40
2018-01-08T11:12:48.218Z,12.20
2018-01-08T11:15:14.946Z,12.30
2018-01-08T11:17:41.644Z,12.30
2018-01-08T11:20:08.452Z,12.60
2018-01-08T11:22:35.983Z,13.20
2018-01-08T11:25:03.410Z,13.20
2018-01-08T11:27:30.121Z,13.20
2018-01-08T11:29:57.521Z,13.80
2018-01-08T11:32:24.193Z,13.80
2018-01-08T11:34:50.994Z,14.30
2018-01-08T11:37:17.722Z,14.60
2018-01-08T11:39:44.493Z,14.70
2018-01-08T11:42:11.346Z,14.90
2018-01-08T11:44:39.068Z,14.90
2018-01-08T11:47:07.830Z,14.20
2018-01-08T11:49:36.997Z,14.20
2018-01-08T11:52:03.756Z,14.90
2018-01-08T11:54:30.535Z,15.60
2018-01-08T12:06:51.745Z,15.90
2018-01-08T12:09:19.238Z,12.90
2018-01-08T12:11:46.291Z,12.80
2018-01-08T12:14:13.054Z,13.00
2018-01-08T12:16:39.782Z,13.20
2018-01-08T12:19:06.543Z,13.20
2018-01-08T12:21:33.229Z,13.10
2018-01-08T12:23:59.902Z,13.50
2018-01-08T12:26:26.705Z,14.20
2018-01-08T12:28:53.456Z,14.10
2018-01-08T12:31:20.200Z,14.00
2018-01-08T12:33:46.917Z,13.60
2018-01-08T12:36:13.606Z,13.50
2018-01-08T12:38:40.274Z,13.20
2018-01-08T12:41:06.958Z,13.10
2018-01-08T12:43:33.622Z,13.30
2018-01-08T12:46:01.139Z,13.20
2018-01-08T12:48:27.920Z,13.40
2018-01-08T12:50:54.607Z,13.40
2018-01-08T12:53:21.280Z,13.30
